Richland, Mississippi
Current Conditions -  °F | °C
As of 7:54 PM on Monday 24 Nov 2014 (Local Time) from KJAN Reporting Station
Clear Clear  
Wind Chill:   Ceiling: Unl
Heat Index:   Visibility: 10mi
Dew Point:   Wind: 5mph
Humidity: 71%   Direction: 320°NW
Pressure: 30.05"   Gusts: NA
Location:  32.2326°N, 90.165°W
Report Text: KJAN 250154Z 32004KT 10SM CLR 07/02 A3005 RMK AO2 SLP174 T00720022
Loading
Personal Weather Stations






























Interactive Weather Map New forecast layout! Learn more

10-Day Weather Forecast

Advertisements
Track Severe Weather on mobile